Time;durP1;ratioP1;P1;durP2;ratioP2;P2;SDS_P1;SDS_P2;PMS_P1;PMS_P2;Temp;Humidity;BMP_temperature;BMP_pressure;BME280_temperature;BME280_humidity;BME280_pressure;Samples;Min_cycle;Max_cycle;Signal;HPM_P1;HPM_P2
2023/02/21 02:14:30;;;;;;;1999.90;999.90;;;8.50;99.90;;;;;;4993844;28;20814;-66
2023/02/21 02:17:17;;;;;;;1999.90;999.90;;;8.60;99.90;;;;;;4993314;28;20799;-66
2023/02/21 02:20:12;;;;;;;1999.90;999.90;;;8.50;99.90;;;;;;4993478;28;20493;-66
2023/02/21 02:22:50;;;;;;;1999.90;999.90;;;8.60;99.90;;;;;;4993159;28;20456;-66
2023/02/21 02:25:54;;;;;;;1999.90;999.90;;;8.60;99.90;;;;;;4993214;28;20424;-66
2023/02/21 02:28:30;;;;;;;1999.90;999.90;;;8.60;99.90;;;;;;4993337;28;20414;-66
2023/02/21 02:31:14;;;;;;;1999.90;999.90;;;8.60;99.90;;;;;;4993111;28;20774;-66
2023/02/21 02:34:17;;;;;;;1999.90;999.90;;;8.60;99.90;;;;;;4993184;28;20407;-66
2023/02/21 02:36:54;;;;;;;1999.90;999.90;;;8.60;99.90;;;;;;4992948;28;20465;-66
2023/02/21 02:39:40;;;;;;;1999.90;999.90;;;8.50;99.90;;;;;;4993133;28;20389;-66
2023/02/21 02:42:10;;;;;;;1999.90;999.90;;;8.50;99.90;;;;;;4993244;28;20405;-67
2023/02/21 02:44:41;;;;;;;1999.90;999.90;;;8.50;99.90;;;;;;4992960;28;20457;-66
2023/02/21 02:47:13;;;;;;;1999.90;999.90;;;8.50;99.90;;;;;;4992694;28;20427;-66
2023/02/21 02:49:42;;;;;;;1999.90;999.90;;;8.50;99.90;;;;;;4992952;28;20399;-67
2023/02/21 02:52:08;;;;;;;1999.90;999.90;;;8.50;99.90;;;;;;4992623;28;20417;-67
2023/02/21 02:54:34;;;;;;;1999.90;999.90;;;8.50;99.90;;;;;;4992805;28;20407;-67
2023/02/21 02:57:09;;;;;;;1999.90;999.90;;;8.50;99.90;;;;;;4992589;28;20426;-67
2023/02/21 02:59:35;;;;;;;1999.90;999.90;;;8.40;99.90;;;;;;4992864;28;20974;-67
2023/02/21 03:02:29;;;;;;;1999.90;999.90;;;8.40;99.90;;;;;;4992464;28;20417;-67
2023/02/21 03:05:23;;;;;;;1999.90;999.90;;;8.50;99.90;;;;;;4992652;28;20421;-67
2023/02/21 03:08:13;;;;;;;1999.90;999.90;;;8.40;99.90;;;;;;4992579;28;20414;-66
2023/02/21 03:10:53;;;;;;;1999.90;999.90;;;8.40;99.90;;;;;;4992505;28;20431;-66
2023/02/21 03:13:35;;;;;;;1999.90;999.90;;;8.40;99.90;;;;;;4992642;28;20885;-67
2023/02/21 03:16:15;;;;;;;1999.90;999.90;;;8.40;99.90;;;;;;4992288;28;20532;-67
2023/02/21 03:19:02;;;;;;;1999.90;999.90;;;8.40;99.90;;;;;;4992534;28;20397;-67
2023/02/21 03:21:36;;;;;;;1999.90;999.90;;;8.40;99.90;;;;;;4992333;28;20495;-67
2023/02/21 03:24:04;;;;;;;1999.90;999.90;;;8.30;99.90;;;;;;4996030;28;20806;-67
2023/02/21 03:26:35;;;;;;;1999.90;999.90;;;8.40;99.90;;;;;;4996464;28;20436;-67
2023/02/21 03:29:01;;;;;;;1999.90;999.90;;;8.40;99.90;;;;;;4996499;28;20401;-67
2023/02/21 03:31:34;;;;;;;1999.90;999.90;;;8.40;99.90;;;;;;4996334;28;20422;-67
2023/02/21 03:34:00;;;;;;;1999.90;999.90;;;8.40;99.90;;;;;;4996864;28;20394;-66
2023/02/21 03:36:26;;;;;;;1999.90;999.90;;;8.40;99.90;;;;;;4996428;28;20425;-66
2023/02/21 03:38:52;;;;;;;1999.90;999.90;;;8.40;99.90;;;;;;4996604;28;20190;-66
2023/02/21 03:41:18;;;;;;;1999.90;999.90;;;8.30;99.90;;;;;;4996347;28;20498;-66
2023/02/21 03:43:43;;;;;;;1999.90;999.90;;;8.30;99.90;;;;;;4996367;28;20213;-66
2023/02/21 03:46:09;;;;;;;1999.90;999.90;;;8.30;99.90;;;;;;4996379;28;20513;-66
2023/02/21 03:48:34;;;;;;;1999.90;999.90;;;8.30;99.90;;;;;;4996242;28;20642;-66
2023/02/21 03:51:00;;;;;;;1999.90;999.90;;;8.30;99.90;;;;;;4996596;28;20233;-66
2023/02/21 03:53:26;;;;;;;1999.90;999.90;;;8.30;99.90;;;;;;4996484;28;20169;-66
2023/02/21 03:55:52;;;;;;;1999.90;999.90;;;8.30;99.90;;;;;;4996236;28;20511;-67
2023/02/21 03:58:17;;;;;;;1999.90;999.90;;;8.30;99.90;;;;;;4996182;28;20172;-67
2023/02/21 04:00:43;;;;;;;1999.90;999.90;;;8.30;99.90;;;;;;4996116;28;20258;-66
2023/02/21 04:03:09;;;;;;;1999.90;999.90;;;8.30;99.90;;;;;;4995987;28;20209;-66
2023/02/21 04:05:35;;;;;;;1999.90;999.90;;;8.20;99.90;;;;;;4996153;28;20179;-66
2023/02/21 04:08:01;;;;;;;1999.90;999.90;;;8.20;99.90;;;;;;4996041;28;20463;-67
2023/02/21 04:10:27;;;;;;;1999.90;999.90;;;8.20;99.90;;;;;;4996004;28;20179;-66
2023/02/21 04:12:53;;;;;;;1999.90;999.90;;;8.20;99.90;;;;;;4995892;28;20413;-66
2023/02/21 04:15:19;;;;;;;1999.90;999.90;;;8.20;99.90;;;;;;4995779;28;20778;-66
2023/02/21 04:17:44;;;;;;;1999.90;999.90;;;8.10;99.90;;;;;;4995994;28;20208;-66
2023/02/21 04:20:10;;;;;;;1999.90;999.90;;;8.10;99.90;;;;;;4995873;28;20268;-66
2023/02/21 04:22:36;;;;;;;1999.90;999.90;;;8.20;99.90;;;;;;4995587;28;20170;-66
2023/02/21 04:25:01;;;;;;;1999.90;999.90;;;8.20;99.90;;;;;;4995849;28;20172;-66
2023/02/21 04:27:27;;;;;;;1999.90;999.90;;;8.10;99.90;;;;;;4995600;28;20216;-66
2023/02/21 04:29:52;;;;;;;1999.90;999.90;;;8.10;99.90;;;;;;4995608;28;20173;-67
2023/02/21 04:32:18;;;;;;;1999.90;999.90;;;8.10;99.90;;;;;;4995179;28;20166;-67
2023/02/21 04:34:43;;;;;;;1999.90;999.90;;;8.10;99.90;;;;;;4995391;28;20695;-67
2023/02/21 04:37:09;;;;;;;1999.90;999.90;;;8.10;99.90;;;;;;4995094;28;20527;-67
2023/02/21 04:39:35;;;;;;;1999.90;999.90;;;8.10;99.90;;;;;;4995292;28;20174;-67
2023/02/21 04:42:00;;;;;;;1999.90;999.90;;;8.10;99.90;;;;;;4994970;28;20182;-67
2023/02/21 04:44:26;;;;;;;1999.90;999.90;;;8.10;99.90;;;;;;4995092;28;20202;-67
2023/02/21 04:46:51;;;;;;;1999.90;999.90;;;8.10;99.90;;;;;;4994888;28;20213;-67
2023/02/21 04:49:17;;;;;;;1999.90;999.90;;;8.00;99.90;;;;;;4995148;28;20170;-67
2023/02/21 04:51:43;;;;;;;1999.90;999.90;;;8.00;99.90;;;;;;4994883;28;20208;-67
2023/02/21 04:54:09;;;;;;;1999.90;999.90;;;8.00;99.90;;;;;;4995038;28;20440;-67
2023/02/21 04:56:36;;;;;;;1999.90;999.90;;;7.90;99.90;;;;;;4994835;28;20189;-67
2023/02/21 04:59:01;;;;;;;1999.90;999.90;;;7.90;99.90;;;;;;4994783;28;20171;-67
2023/02/21 05:01:30;;;;;;;1999.90;999.90;;;7.90;99.90;;;;;;4994669;28;20409;-67
2023/02/21 05:03:55;;;;;;;1999.90;999.90;;;7.90;99.90;;;;;;4994896;28;20242;-67
2023/02/21 05:06:24;;;;;;;1999.90;999.90;;;7.90;99.90;;;;;;4994577;28;20429;-67
2023/02/21 05:08:50;;;;;;;1999.90;999.90;;;8.00;99.90;;;;;;4994825;28;20452;-67
2023/02/21 05:11:17;;;;;;;1999.90;999.90;;;7.90;99.90;;;;;;4994486;28;20899;-67
2023/02/21 05:13:43;;;;;;;1999.90;999.90;;;8.00;99.90;;;;;;4994532;28;20170;-67
2023/02/21 05:16:09;;;;;;;1999.90;999.90;;;7.90;99.90;;;;;;4994256;28;20460;-67
2023/02/21 05:18:36;;;;;;;1999.90;999.90;;;7.90;99.90;;;;;;4994512;28;20188;-67
2023/02/21 05:21:06;;;;;;;1999.90;999.90;;;7.90;99.90;;;;;;4994438;28;20236;-67
2023/02/21 05:23:35;;;;;;;1999.90;999.90;;;7.90;99.90;;;;;;4994417;28;20455;-67
2023/02/21 05:26:10;;;;;;;1999.90;999.90;;;8.00;99.90;;;;;;4994192;28;20428;-67
2023/02/21 05:28:37;;;;;;;1999.90;999.90;;;7.90;99.90;;;;;;4994439;28;20408;-67
2023/02/21 05:31:03;;;;;;;1999.90;999.90;;;7.90;99.90;;;;;;4994137;28;20410;-67
2023/02/21 05:33:29;;;;;;;1999.90;999.90;;;7.90;99.90;;;;;;5011698;28;20439;-66
2023/02/21 05:35:55;;;;;;;1999.90;999.90;;;7.90;99.90;;;;;;5013773;28;20501;-66
2023/02/21 05:38:22;;;;;;;1999.90;999.90;;;7.80;99.90;;;;;;5013858;28;20566;-66
2023/02/21 05:40:48;;;;;;;1999.90;999.90;;;7.80;99.90;;;;;;5013518;28;20424;-66
2023/02/21 05:43:14;;;;;;;1999.90;999.90;;;7.70;99.90;;;;;;5013829;28;20526;-66
2023/02/21 05:45:40;;;;;;;1999.90;999.90;;;7.70;99.90;;;;;;5013281;28;20189;-66
2023/02/21 05:48:05;;;;;;;1999.90;999.90;;;7.70;99.90;;;;;;5013669;28;20405;-66
2023/02/21 05:50:31;;;;;;;1999.90;999.90;;;7.70;99.90;;;;;;5013534;28;20165;-66
2023/02/21 05:52:58;;;;;;;1999.90;999.90;;;7.70;99.90;;;;;;5013646;28;20166;-66
2023/02/21 05:55:24;;;;;;;1999.90;999.90;;;7.60;99.90;;;;;;5013427;28;20575;-66
2023/02/21 05:57:50;;;;;;;1999.90;999.90;;;7.60;99.90;;;;;;5013490;28;20464;-66
2023/02/21 06:00:24;;;;;;;1999.90;999.90;;;7.50;99.90;;;;;;5013419;28;20502;-66
2023/02/21 06:02:51;;;;;;;1999.90;999.90;;;7.50;99.90;;;;;;5013473;28;20445;-66
2023/02/21 06:05:20;;;;;;;1999.90;999.90;;;7.50;99.90;;;;;;5013311;28;20422;-67
2023/02/21 06:07:46;;;;;;;1999.90;999.90;;;7.50;99.90;;;;;;5013210;28;20401;-66
2023/02/21 06:10:12;;;;;;;1999.90;999.90;;;7.50;99.90;;;;;;5013250;28;20402;-66
2023/02/21 06:12:38;;;;;;;1999.90;999.90;;;7.50;99.90;;;;;;5013066;28;20400;-66
2023/02/21 06:15:06;;;;;;;1999.90;999.90;;;7.50;99.90;;;;;;5013172;28;20562;-66
2023/02/21 06:17:33;;;;;;;1999.90;999.90;;;7.50;99.90;;;;;;5012923;28;20552;-67
2023/02/21 06:19:59;;;;;;;1999.90;999.90;;;7.50;99.90;;;;;;5012969;28;20791;-67
2023/02/21 06:22:24;;;;;;;1999.90;999.90;;;7.50;99.90;;;;;;5012575;28;20413;-67
2023/02/21 06:24:50;;;;;;;1999.90;999.90;;;7.50;99.90;;;;;;5012814;28;20260;-67
2023/02/21 06:27:15;;;;;;;1999.90;999.90;;;7.50;99.90;;;;;;5012745;28;20169;-67
2023/02/21 06:29:41;;;;;;;1999.90;999.90;;;7.50;99.90;;;;;;5013005;28;20235;-67
2023/02/21 06:32:07;;;;;;;1999.90;999.90;;;7.50;99.90;;;;;;5012642;28;20165;-67
2023/02/21 06:34:32;;;;;;;1999.90;999.90;;;7.50;99.90;;;;;;5012784;28;20583;-67
2023/02/21 06:36:58;;;;;;;1999.90;999.90;;;7.50;99.90;;;;;;5012578;28;20186;-67
2023/02/21 06:39:24;;;;;;;1999.90;999.90;;;7.50;99.90;;;;;;5012604;28;20257;-67
2023/02/21 06:41:52;;;;;;;1999.90;999.90;;;7.50;99.90;;;;;;5012450;28;20242;-67
2023/02/21 06:44:17;;;;;;;1999.90;999.90;;;7.40;99.90;;;;;;5011397;28;20209;-67
2023/02/21 06:46:43;;;;;;;1999.90;999.90;;;7.40;99.90;;;;;;5012538;28;20774;-67
2023/02/21 06:49:09;;;;;;;1999.90;999.90;;;7.40;99.90;;;;;;5012483;28;20415;-67
2023/02/21 06:51:36;;;;;;;1999.90;999.90;;;7.50;99.90;;;;;;5012288;28;20192;-67
2023/02/21 06:54:03;;;;;;;1999.90;999.90;;;7.50;99.90;;;;;;5012460;28;20411;-67
2023/02/21 06:56:29;;;;;;;1999.90;999.90;;;7.50;99.90;;;;;;5011820;28;20428;-67
2023/02/21 06:58:56;;;;;;;1999.90;999.90;;;7.50;99.90;;;;;;5012107;28;20408;-67
2023/02/21 07:01:22;;;;;;;1999.90;999.90;;;7.50;99.90;;;;;;5012183;28;20415;-67
2023/02/21 07:03:48;;;;;;;1999.90;999.90;;;7.50;99.90;;;;;;5012225;28;20452;-67
2023/02/21 07:06:14;;;;;;;1999.90;999.90;;;7.50;99.90;;;;;;5012113;28;20423;-67
2023/02/21 07:08:40;;;;;;;1999.90;999.90;;;7.50;99.90;;;;;;5012496;28;20229;-67
2023/02/21 07:11:07;;;;;;;1999.90;999.90;;;7.40;99.90;;;;;;5012200;28;20475;-67
2023/02/21 07:13:32;;;;;;;1999.90;999.90;;;7.40;99.90;;;;;;5012270;28;20776;-66
2023/02/21 07:15:58;;;;;;;1999.90;999.90;;;7.40;99.90;;;;;;5012125;28;20478;-66
2023/02/21 07:18:24;;;;;;;1999.90;999.90;;;7.50;99.90;;;;;;5012254;28;20231;-66
2023/02/21 07:20:50;;;;;;;1999.90;999.90;;;7.50;99.90;;;;;;5012069;28;20416;-66
2023/02/21 07:23:15;;;;;;;1999.90;999.90;;;7.50;99.90;;;;;;5012133;28;20200;-66
2023/02/21 07:25:41;;;;;;;1999.90;999.90;;;7.50;99.90;;;;;;5012068;28;20219;-66
2023/02/21 07:28:06;;;;;;;1999.90;999.90;;;7.50;99.90;;;;;;5012421;28;20541;-66
2023/02/21 07:30:33;;;;;;;1999.90;999.90;;;7.50;99.90;;;;;;5012172;28;20185;-67
2023/02/21 07:32:58;;;;;;;1999.90;999.90;;;7.50;99.90;;;;;;5012504;28;20648;-66
2023/02/21 07:35:24;;;;;;;1999.90;999.90;;;7.50;99.90;;;;;;5011985;28;20511;-66
2023/02/21 07:37:50;;;;;;;1999.90;999.90;;;7.50;99.90;;;;;;5012004;28;20412;-66
2023/02/21 07:40:16;;;;;;;1999.90;999.90;;;7.50;99.90;;;;;;5012022;28;20248;-67
2023/02/21 07:42:46;;;;;;;1999.90;999.90;;;7.60;99.90;;;;;;5011966;28;20185;-66
2023/02/21 07:45:13;;;;;;;1999.90;999.90;;;7.50;99.90;;;;;;5012014;28;20205;-67
2023/02/21 07:47:39;;;;;;;1999.90;999.90;;;7.60;99.90;;;;;;5011793;28;20944;-66
2023/02/21 07:50:05;;;;;;;1999.90;999.90;;;7.60;99.90;;;;;;5011769;28;20408;-66
2023/02/21 07:52:31;;;;;;;1999.90;999.90;;;7.60;99.90;;;;;;5011822;28;20236;-66
2023/02/21 07:54:56;;;;;;;1999.90;999.90;;;7.60;99.90;;;;;;5011966;28;20910;-67
2023/02/21 07:57:22;;;;;;;1999.90;999.90;;;7.60;99.90;;;;;;5011901;28;20193;-67
2023/02/21 07:59:48;;;;;;;1999.90;999.90;;;7.60;99.90;;;;;;5012258;28;20205;-66
2023/02/21 08:02:14;;;;;;;1999.90;999.90;;;7.60;99.90;;;;;;5012471;28;20205;-67
2023/02/21 08:04:40;;;;;;;1999.90;999.90;;;7.60;99.90;;;;;;5012351;28;20726;-67
2023/02/21 08:07:07;;;;;;;1999.90;999.90;;;7.60;99.90;;;;;;5012969;28;20427;-67
2023/02/21 08:09:33;;;;;;;1999.90;999.90;;;7.70;99.90;;;;;;5015456;28;20415;-66
2023/02/21 08:11:59;;;;;;;1999.90;999.90;;;7.80;99.90;;;;;;5016131;28;20416;-67
2023/02/21 08:14:24;;;;;;;1999.90;999.90;;;7.80;99.90;;;;;;5016063;28;20409;-67
2023/02/21 08:16:50;;;;;;;1999.90;999.90;;;7.90;99.90;;;;;;5015821;28;20291;-66
2023/02/21 08:19:16;;;;;;;1999.90;999.90;;;7.90;99.90;;;;;;5015829;28;20513;-67
2023/02/21 08:21:46;;;;;;;1999.90;999.90;;;7.90;99.90;;;;;;5016096;28;20553;-67
2023/02/21 08:24:12;;;;;;;1999.90;999.90;;;8.00;99.90;;;;;;5015802;28;20483;-67
2023/02/21 08:26:40;;;;;;;1999.90;999.90;;;8.00;99.90;;;;;;5015720;28;20512;-67
2023/02/21 08:29:06;;;;;;;1999.90;999.90;;;8.10;99.90;;;;;;5016237;28;20494;-67
2023/02/21 08:31:36;;;;;;;1999.90;999.90;;;8.20;99.90;;;;;;5016240;28;20769;-67
2023/02/21 08:34:03;;;;;;;1999.90;999.90;;;8.20;99.90;;;;;;5016161;28;20755;-67
2023/02/21 08:36:34;;;;;;;1999.90;999.90;;;8.20;99.90;;;;;;5015578;28;20434;-67
2023/02/21 08:38:59;;;;;;;1999.90;999.90;;;8.30;99.90;;;;;;5015643;28;20444;-67
2023/02/21 08:41:25;;;;;;;1999.90;999.90;;;8.40;99.90;;;;;;5015771;28;20916;-67
2023/02/21 08:43:51;;;;;;;1999.90;999.90;;;8.30;99.90;;;;;;5014772;28;20238;-67
2023/02/21 08:46:16;;;;;;;1999.90;999.90;;;8.40;99.90;;;;;;5014502;28;20656;-67
2023/02/21 08:48:42;;;;;;;1999.90;999.90;;;8.40;99.90;;;;;;5014903;28;20422;-67
2023/02/21 08:51:08;;;;;;;1999.90;999.90;;;8.40;99.90;;;;;;5014490;28;20405;-67
2023/02/21 08:53:33;;;;;;;1999.90;999.90;;;8.40;99.90;;;;;;5014540;28;20182;-67
2023/02/21 08:55:59;;;;;;;1999.90;999.90;;;8.40;99.90;;;;;;5014419;28;20193;-67
2023/02/21 08:58:24;;;;;;;1999.90;999.90;;;8.40;99.90;;;;;;5014600;28;20252;-67
2023/02/21 09:00:50;;;;;;;1999.90;999.90;;;8.50;99.90;;;;;;5014226;28;20181;-67
2023/02/21 09:03:16;;;;;;;1999.90;999.90;;;8.50;99.90;;;;;;5014444;28;20238;-67
2023/02/21 09:05:41;;;;;;;1999.90;999.90;;;8.60;99.90;;;;;;5014271;28;20200;-67
2023/02/21 09:08:09;;;;;;;1999.90;999.90;;;8.50;99.90;;;;;;5014224;28;20180;-67
2023/02/21 09:10:35;;;;;;;1999.90;999.90;;;8.60;99.90;;;;;;5014215;28;20251;-67
2023/02/21 09:13:02;;;;;;;1999.90;999.90;;;8.50;99.90;;;;;;5014290;28;20521;-67
2023/02/21 09:15:27;;;;;;;1999.90;999.90;;;8.50;99.90;;;;;;5013968;28;20547;-67
2023/02/21 09:17:54;;;;;;;1999.90;999.90;;;8.40;99.90;;;;;;5014286;28;20519;-67
2023/02/21 09:20:23;;;;;;;1999.90;999.90;;;8.40;99.90;;;;;;5013253;28;20231;-67
2023/02/21 09:22:49;;;;;;;1999.90;999.90;;;8.40;99.90;;;;;;5013692;28;20435;-67
2023/02/21 09:25:18;;;;;;;1999.90;999.90;;;8.40;99.90;;;;;;5013905;28;20532;-67
2023/02/21 09:27:43;;;;;;;1999.90;999.90;;;8.50;99.90;;;;;;5013927;28;20428;-67
2023/02/21 09:30:15;;;;;;;1999.90;999.90;;;8.50;99.90;;;;;;5013930;28;20913;-67
2023/02/21 09:32:41;;;;;;;1999.90;999.90;;;8.60;99.90;;;;;;5013869;28;20202;-67
2023/02/21 09:35:08;;;;;;;1999.90;999.90;;;8.70;99.90;;;;;;5013751;28;20491;-67
2023/02/21 09:37:38;;;;;;;1999.90;999.90;;;8.70;99.90;;;;;;5013658;28;20179;-67
2023/02/21 09:40:05;;;;;;;1999.90;999.90;;;8.70;99.90;;;;;;5013757;28;20415;-67
2023/02/21 09:42:31;;;;;;;1999.90;999.90;;;8.80;99.90;;;;;;5013369;28;20410;-67
2023/02/21 09:44:58;;;;;;;1999.90;999.90;;;9.00;99.90;;;;;;5013616;28;20431;-67
2023/02/21 09:47:33;;;;;;;1999.90;999.90;;;9.00;99.90;;;;;;5013543;28;20179;-67
2023/02/21 09:50:11;;;;;;;1999.90;999.90;;;9.00;99.90;;;;;;5013562;28;20480;-67
2023/02/21 09:52:39;;;;;;;1999.90;999.90;;;9.00;99.90;;;;;;5013284;28;20467;-67
2023/02/21 09:55:27;;;;;;;1999.90;999.90;;;9.00;99.90;;;;;;5009044;28;20430;-67
2023/02/21 09:57:53;;;;;;;1999.90;999.90;;;9.20;99.90;;;;;;4993112;28;20486;-68
2023/02/21 10:00:31;;;;;;;1999.90;999.90;;;9.20;99.90;;;;;;5005267;28;20450;-68
2023/02/21 10:03:22;;;;;;;1999.90;999.90;;;9.20;99.90;;;;;;5003250;28;20502;-68
2023/02/21 10:05:59;;;;;;;1999.90;999.90;;;9.30;99.90;;;;;;4993294;28;20959;-68
2023/02/21 10:08:36;;;;;;;1999.90;999.90;;;9.20;99.90;;;;;;4993117;28;20426;-68
2023/02/21 10:11:33;;;;;;;1999.90;999.90;;;9.30;99.90;;;;;;4992575;28;20410;-68
2023/02/21 10:14:13;;;;;;;1999.90;999.90;;;9.40;99.90;;;;;;4992933;28;20928;-67
2023/02/21 10:16:45;;;;;;;1999.90;999.90;;;9.30;99.90;;;;;;4992646;28;20845;-68
2023/02/21 10:19:34;;;;;;;1999.90;999.90;;;9.30;99.90;;;;;;4992966;28;20425;-68
2023/02/21 10:22:11;;;;;;;1999.90;999.90;;;9.40;99.90;;;;;;4992504;28;20748;-67
2023/02/21 10:24:36;;;;;;;1999.90;999.90;;;9.50;99.90;;;;;;4992634;28;20994;-67
2023/02/21 10:27:05;;;;;;;1999.90;999.90;;;9.50;99.90;;;;;;4991893;28;20434;-67
2023/02/21 10:29:44;;;;;;;1999.90;999.90;;;9.60;99.90;;;;;;4992882;28;20184;-67
2023/02/21 10:32:09;;;;;;;1999.90;999.90;;;9.70;99.90;;;;;;4991242;28;20410;-67
2023/02/21 10:34:35;;;;;;;1999.90;999.90;;;9.70;99.90;;;;;;4992610;28;20804;-68
2023/02/21 10:37:22;;;;;;;1999.90;999.90;;;9.70;99.90;;;;;;4992430;28;20197;-69
2023/02/21 10:40:04;;;;;;;1999.90;999.90;;;9.70;99.90;;;;;;4992051;28;20412;-69
2023/02/21 10:42:36;;;;;;;1999.90;999.90;;;9.70;99.90;;;;;;4992363;28;20917;-70
2023/02/21 10:45:03;;;;;;;1999.90;999.90;;;9.90;99.90;;;;;;4992373;28;20458;-69
2023/02/21 10:47:45;;;;;;;1999.90;999.90;;;10.10;99.90;;;;;;4992115;28;20404;-69
2023/02/21 10:50:11;;;;;;;1999.90;999.90;;;10.10;99.90;;;;;;4992513;28;20405;-69
2023/02/21 10:52:50;;;;;;;1999.90;999.90;;;10.20;99.90;;;;;;4992213;28;20400;-69
2023/02/21 10:55:21;;;;;;;1999.90;999.90;;;10.20;99.90;;;;;;4991787;28;20421;-69
2023/02/21 10:57:55;;;;;;;1999.90;999.90;;;10.10;99.90;;;;;;4992375;28;20821;-68
2023/02/21 11:00:38;;;;;;;1999.90;999.90;;;10.00;99.90;;;;;;4992249;28;20439;-69
2023/02/21 11:03:26;;;;;;;1999.90;999.90;;;10.00;99.90;;;;;;4991854;28;20444;-69
2023/02/21 11:05:57;;;;;;;1999.90;999.90;;;10.10;99.90;;;;;;4991470;28;20464;-69
2023/02/21 11:08:39;;;;;;;1999.90;999.90;;;10.20;99.90;;;;;;4992257;28;20423;-69
2023/02/21 11:11:06;;;;;;;1999.90;999.90;;;10.20;99.90;;;;;;4992037;28;20397;-69
2023/02/21 11:13:34;;;;;;;1999.90;999.90;;;10.10;99.90;;;;;;4992123;28;20417;-69
2023/02/21 11:16:16;;;;;;;1999.90;999.90;;;9.90;99.90;;;;;;4991808;28;20880;-69
2023/02/21 11:18:41;;;;;;;1999.90;999.90;;;10.00;99.90;;;;;;4992541;28;20404;-69
2023/02/21 11:21:18;;;;;;;1999.90;999.90;;;10.10;99.90;;;;;;4992241;28;20488;-69
2023/02/21 11:24:02;;;;;;;1999.90;999.90;;;10.20;99.90;;;;;;4992205;28;20690;-69
2023/02/21 11:26:43;;;;;;;1999.90;999.90;;;10.30;99.90;;;;;;4992133;28;20847;-69
2023/02/21 11:29:13;;;;;;;1999.90;999.90;;;10.20;99.90;;;;;;4992700;28;20783;-69
2023/02/21 11:31:39;;;;;;;1999.90;999.90;;;10.40;99.90;;;;;;4991851;28;20405;-69
2023/02/21 11:34:07;;;;;;;1999.90;999.90;;;10.60;99.90;;;;;;4992508;28;20412;-69
2023/02/21 11:36:39;;;;;;;1999.90;999.90;;;10.70;99.90;;;;;;4992480;28;20428;-69
2023/02/21 11:39:19;;;;;;;1999.90;999.90;;;10.80;99.90;;;;;;4992229;28;20504;-69
2023/02/21 11:41:47;;;;;;;1999.90;999.90;;;11.00;99.90;;;;;;4992490;28;20412;-69
2023/02/21 11:44:39;;;;;;;1999.90;999.90;;;11.10;99.90;;;;;;4994175;28;20468;-68
2023/02/21 11:47:21;;;;;;;1999.90;999.90;;;11.20;99.90;;;;;;4995129;28;20421;-68
2023/02/21 11:50:19;;;;;;;1999.90;999.90;;;11.30;99.90;;;;;;4995465;28;20479;-68
2023/02/21 11:53:02;;;;;;;1999.90;999.90;;;11.20;99.90;;;;;;4995564;28;20393;-68
2023/02/21 11:55:28;;;;;;;1999.90;999.90;;;10.90;99.90;;;;;;4995569;28;20427;-68
2023/02/21 11:58:24;;;;;;;1999.90;999.90;;;10.80;99.90;;;;;;4995227;28;20415;-68
2023/02/21 12:01:08;;;;;;;1999.90;999.90;;;10.70;99.90;;;;;;4994860;28;20205;-68
2023/02/21 12:03:58;;;;;;;1999.90;999.90;;;10.80;99.90;;;;;;4995450;28;20775;-68
2023/02/21 12:06:45;;;;;;;1999.90;999.90;;;10.90;99.90;;;;;;4995109;28;20423;-68
2023/02/21 12:09:18;;;;;;;1999.90;999.90;;;11.20;99.90;;;;;;4994795;28;20402;-68
2023/02/21 12:12:04;;;;;;;1999.90;999.90;;;11.50;99.90;;;;;;4995208;28;20543;-68
2023/02/21 12:14:53;;;;;;;1999.90;999.90;;;11.80;99.90;;;;;;4995136;28;20500;-68
2023/02/21 12:17:47;;;;;;;1999.90;999.90;;;12.20;99.90;;;;;;4994624;28;20411;-68
2023/02/21 12:20:57;;;;;;;1999.90;999.90;;;12.00;99.90;;;;;;4995226;28;20986;-68
2023/02/21 12:23:44;;;;;;;1999.90;999.90;;;12.00;99.90;;;;;;4994671;28;20532;-68
2023/02/21 12:26:34;;;;;;;1999.90;999.90;;;12.10;99.90;;;;;;4994828;28;21023;-68
2023/02/21 12:29:20;;;;;;;1999.90;999.90;;;12.30;99.90;;;;;;4995028;28;20964;-68
2023/02/21 12:31:46;;;;;;;1999.90;999.90;;;12.70;99.90;;;;;;4986464;28;20419;-68
2023/02/21 12:34:39;;;;;;;1999.90;999.90;;;13.20;99.90;;;;;;4994976;28;20918;-68
2023/02/21 12:37:23;;;;;;;1999.90;999.90;;;14.00;99.90;;;;;;4994727;28;20771;-68
2023/02/21 12:40:03;;;;;;;1999.90;999.90;;;14.90;99.90;;;;;;4994777;28;20397;-68
2023/02/21 12:42:55;;;;;;;1999.90;999.90;;;16.00;99.90;;;;;;4994778;28;20414;-68
2023/02/21 12:45:33;;;;;;;1999.90;999.90;;;17.10;99.90;;;;;;4994257;28;20478;-68
2023/02/21 12:48:14;;;;;;;1999.90;999.90;;;17.80;99.90;;;;;;4994330;28;20410;-68
2023/02/21 12:50:44;;;;;;;1999.90;999.90;;;18.40;99.90;;;;;;4994643;28;20451;-68
2023/02/21 12:53:15;;;;;;;1999.90;999.90;;;18.50;99.90;;;;;;4994106;28;20443;-68
2023/02/21 12:55:51;;;;;;;1999.90;999.90;;;18.00;99.90;;;;;;4993150;28;20919;-68
2023/02/21 12:58:35;;;;;;;1999.90;999.90;;;16.90;99.90;;;;;;4994661;28;20410;-68
2023/02/21 13:01:26;;;;;;;1999.90;999.90;;;16.60;99.90;;;;;;4993849;28;20793;-68
2023/02/21 13:04:22;;;;;;;1999.90;999.90;;;17.20;99.90;;;;;;4994245;28;20467;-68
2023/02/21 13:06:47;;;;;;;1999.90;999.90;;;18.20;99.90;;;;;;4994035;28;20417;-68
2023/02/21 13:09:50;;;;;;;1999.90;999.90;;;18.80;99.90;;;;;;4993984;28;20411;-68
2023/02/21 13:12:29;;;;;;;1999.90;999.90;;;19.80;99.90;;;;;;4994103;28;20193;-68
2023/02/21 13:15:21;;;;;;;1999.90;999.90;;;20.70;99.90;;;;;;4993602;28;20459;-68
2023/02/21 13:18:14;;;;;;;1999.90;999.90;;;20.40;96.00;;;;;;4993961;28;20403;-68
2023/02/21 13:20:44;;;;;;;1999.90;999.90;;;20.40;96.30;;;;;;4993939;28;20408;-68
2023/02/21 13:23:56;;;;;;;1999.90;999.90;;;20.90;94.40;;;;;;4993602;28;20454;-68
2023/02/21 13:26:43;;;;;;;1999.90;999.90;;;21.00;90.60;;;;;;4993871;28;20449;-69
2023/02/21 13:29:33;;;;;;;1999.90;999.90;;;20.80;87.20;;;;;;4993497;28;20397;-68
2023/02/21 13:32:01;;;;;;;1999.90;999.90;;;21.40;85.70;;;;;;4993028;28;20422;-69
2023/02/21 13:34:37;;;;;;;1999.90;999.90;;;21.90;87.80;;;;;;4993845;28;20413;-68
2023/02/21 13:37:06;;;;;;;1999.90;999.90;;;22.30;82.10;;;;;;4993263;28;20532;-69
2023/02/21 13:39:36;;;;;;;1999.90;999.90;;;22.60;72.40;;;;;;4993731;28;20412;-68
2023/02/21 13:42:08;;;;;;;1999.90;999.90;;;22.80;73.30;;;;;;4993459;28;20377;-69
2023/02/21 13:44:39;;;;;;;1999.90;999.90;;;23.20;65.20;;;;;;4992968;28;20521;-69
2023/02/21 13:47:12;;;;;;;1999.90;999.90;;;23.30;56.90;;;;;;4993414;28;20422;-69
2023/02/21 13:49:48;;;;;;;1999.90;999.90;;;23.30;54.80;;;;;;4993607;28;20431;-69
2023/02/21 13:52:22;;;;;;;1999.90;999.90;;;23.60;52.60;;;;;;4992818;28;20413;-69
2023/02/21 13:55:19;;;;;;;1999.90;999.90;;;23.70;48.80;;;;;;4993322;28;20906;-69
2023/02/21 13:57:57;;;;;;;1999.90;999.90;;;24.00;48.70;;;;;;4993126;28;20383;-69
2023/02/21 14:00:28;;;;;;;1999.90;999.90;;;24.30;43.30;;;;;;4992898;28;20909;-69
2023/02/21 14:02:57;;;;;;;1999.90;999.90;;;24.10;42.30;;;;;;4993336;28;20405;-68
2023/02/21 14:05:23;;;;;;;1999.90;999.90;;;23.70;39.70;;;;;;4993177;28;20463;-68
2023/02/21 14:07:57;;;;;;;1999.90;999.90;;;23.50;43.20;;;;;;4991656;28;20401;-69
2023/02/21 14:10:42;;;;;;;1999.90;999.90;;;23.40;41.20;;;;;;4993225;28;20387;-69
2023/02/21 14:13:22;;;;;;;1999.90;999.90;;;23.60;40.70;;;;;;4993129;28;20877;-69
2023/02/21 14:15:55;;;;;;;1999.90;999.90;;;23.50;38.40;;;;;;4992193;28;20534;-68
2023/02/21 14:18:29;;;;;;;1999.90;999.90;;;23.30;41.90;;;;;;4993245;28;20787;-68
2023/02/21 14:20:56;;;;;;;1999.90;999.90;;;23.20;41.10;;;;;;4992275;28;20391;-68
2023/02/21 14:23:30;;;;;;;1999.90;999.90;;;22.80;40.30;;;;;;4992897;28;20487;-68
2023/02/21 14:26:01;;;;;;;1999.90;999.90;;;22.80;41.60;;;;;;4992634;28;20930;-68
2023/02/21 14:28:57;;;;;;;1999.90;999.90;;;22.90;42.00;;;;;;4992289;28;20424;-68
2023/02/21 14:31:49;;;;;;;1999.90;999.90;;;23.00;42.60;;;;;;4992339;28;20920;-68
2023/02/21 14:34:45;;;;;;;1999.90;999.90;;;23.20;42.90;;;;;;4992793;28;20430;-68
2023/02/21 14:37:26;;;;;;;1999.90;999.90;;;23.20;40.10;;;;;;4992119;28;20435;-67
2023/02/21 14:39:55;;;;;;;1999.90;999.90;;;22.70;39.80;;;;;;4992603;28;20892;-68
2023/02/21 14:42:26;;;;;;;1999.90;999.90;;;22.70;43.90;;;;;;4992302;28;20935;-67
2023/02/21 14:45:14;;;;;;;1999.90;999.90;;;22.70;42.10;;;;;;4992318;28;20544;-68